sensor_id;sensor_type;location;lat;lon;timestamp;P1;durP1;ratioP1;P2;durP2;ratioP2
6374;SDS011;35400;45.472;-122.822;2024-01-25T00:00:45;8.57;;;2.20;;
6374;SDS011;35400;45.472;-122.822;2024-01-25T00:03:12;6.97;;;1.67;;
6374;SDS011;35400;45.472;-122.822;2024-01-25T00:05:39;7.73;;;1.80;;
6374;SDS011;35400;45.472;-122.822;2024-01-25T00:08:06;7.37;;;2.27;;
6374;SDS011;35400;45.472;-122.822;2024-01-25T00:10:33;10.90;;;2.63;;
6374;SDS011;35400;45.472;-122.822;2024-01-25T00:13:00;12.30;;;2.67;;
6374;SDS011;35400;45.472;-122.822;2024-01-25T00:15:27;14.47;;;2.67;;
6374;SDS011;35400;45.472;-122.822;2024-01-25T00:17:54;12.03;;;3.30;;
6374;SDS011;35400;45.472;-122.822;2024-01-25T00:20:22;12.73;;;2.50;;
6374;SDS011;35400;45.472;-122.822;2024-01-25T00:22:49;7.50;;;2.00;;
6374;SDS011;35400;45.472;-122.822;2024-01-25T00:25:16;9.43;;;3.00;;
6374;SDS011;35400;45.472;-122.822;2024-01-25T00:27:43;12.57;;;2.67;;
6374;SDS011;35400;45.472;-122.822;2024-01-25T00:30:10;8.07;;;2.23;;
6374;SDS011;35400;45.472;-122.822;2024-01-25T00:32:37;10.57;;;2.20;;
6374;SDS011;35400;45.472;-122.822;2024-01-25T00:35:04;7.10;;;1.97;;
6374;SDS011;35400;45.472;-122.822;2024-01-25T00:37:32;9.07;;;2.30;;
6374;SDS011;35400;45.472;-122.822;2024-01-25T00:39:59;6.10;;;2.17;;
6374;SDS011;35400;45.472;-122.822;2024-01-25T00:42:26;6.93;;;1.90;;
6374;SDS011;35400;45.472;-122.822;2024-01-25T00:44:54;10.20;;;1.97;;
6374;SDS011;35400;45.472;-122.822;2024-01-25T00:47:21;9.60;;;2.23;;
6374;SDS011;35400;45.472;-122.822;2024-01-25T00:49:48;6.10;;;1.70;;
6374;SDS011;35400;45.472;-122.822;2024-01-25T00:52:15;10.60;;;2.50;;
6374;SDS011;35400;45.472;-122.822;2024-01-25T00:54:42;11.03;;;2.70;;
6374;SDS011;35400;45.472;-122.822;2024-01-25T00:57:10;8.50;;;2.93;;
6374;SDS011;35400;45.472;-122.822;2024-01-25T00:59:37;12.83;;;2.60;;
6374;SDS011;35400;45.472;-122.822;2024-01-25T01:02:04;9.97;;;2.30;;
6374;SDS011;35400;45.472;-122.822;2024-01-25T01:04:33;16.33;;;3.00;;
6374;SDS011;35400;45.472;-122.822;2024-01-25T01:07:00;11.77;;;2.60;;
6374;SDS011;35400;45.472;-122.822;2024-01-25T01:09:27;10.57;;;2.20;;
6374;SDS011;35400;45.472;-122.822;2024-01-25T01:11:54;12.63;;;2.90;;
6374;SDS011;35400;45.472;-122.822;2024-01-25T01:14:21;9.70;;;2.63;;
6374;SDS011;35400;45.472;-122.822;2024-01-25T01:16:48;13.77;;;3.50;;
6374;SDS011;35400;45.472;-122.822;2024-01-25T01:19:16;8.23;;;2.33;;
6374;SDS011;35400;45.472;-122.822;2024-01-25T01:21:43;13.80;;;2.03;;
6374;SDS011;35400;45.472;-122.822;2024-01-25T01:24:10;8.37;;;1.83;;
6374;SDS011;35400;45.472;-122.822;2024-01-25T01:26:37;11.27;;;2.03;;
6374;SDS011;35400;45.472;-122.822;2024-01-25T01:29:04;6.73;;;2.10;;
6374;SDS011;35400;45.472;-122.822;2024-01-25T01:31:31;7.07;;;1.90;;
6374;SDS011;35400;45.472;-122.822;2024-01-25T01:33:58;8.93;;;1.70;;
6374;SDS011;35400;45.472;-122.822;2024-01-25T01:36:25;4.50;;;1.60;;
6374;SDS011;35400;45.472;-122.822;2024-01-25T01:38:52;6.57;;;1.83;;
6374;SDS011;35400;45.472;-122.822;2024-01-25T01:41:19;8.30;;;1.80;;
6374;SDS011;35400;45.472;-122.822;2024-01-25T01:43:45;7.53;;;1.97;;
6374;SDS011;35400;45.472;-122.822;2024-01-25T01:46:15;5.23;;;1.63;;
6374;SDS011;35400;45.472;-122.822;2024-01-25T01:48:56;6.47;;;1.50;;
6374;SDS011;35400;45.472;-122.822;2024-01-25T01:51:23;6.93;;;2.10;;
6374;SDS011;35400;45.472;-122.822;2024-01-25T01:53:50;10.60;;;3.57;;
6374;SDS011;35400;45.472;-122.822;2024-01-25T01:56:17;8.03;;;2.80;;
6374;SDS011;35400;45.472;-122.822;2024-01-25T01:58:44;4.70;;;1.83;;
6374;SDS011;35400;45.472;-122.822;2024-01-25T02:01:13;5.53;;;1.87;;
6374;SDS011;35400;45.472;-122.822;2024-01-25T02:03:40;5.57;;;1.50;;
6374;SDS011;35400;45.472;-122.822;2024-01-25T02:06:07;4.80;;;1.70;;
6374;SDS011;35400;45.472;-122.822;2024-01-25T02:08:34;4.47;;;1.40;;
6374;SDS011;35400;45.472;-122.822;2024-01-25T02:11:01;1.70;;;1.10;;
6374;SDS011;35400;45.472;-122.822;2024-01-25T02:13:29;4.37;;;1.10;;
6374;SDS011;35400;45.472;-122.822;2024-01-25T02:15:56;6.07;;;1.70;;
6374;SDS011;35400;45.472;-122.822;2024-01-25T02:18:22;5.20;;;1.50;;
6374;SDS011;35400;45.472;-122.822;2024-01-25T02:20:49;3.70;;;1.20;;
6374;SDS011;35400;45.472;-122.822;2024-01-25T02:23:16;3.27;;;1.40;;
6374;SDS011;35400;45.472;-122.822;2024-01-25T02:25:43;5.63;;;1.70;;
6374;SDS011;35400;45.472;-122.822;2024-01-25T02:28:10;4.50;;;1.77;;
6374;SDS011;35400;45.472;-122.822;2024-01-25T02:30:37;4.23;;;1.43;;
6374;SDS011;35400;45.472;-122.822;2024-01-25T02:33:04;7.47;;;1.50;;
6374;SDS011;35400;45.472;-122.822;2024-01-25T02:35:30;6.70;;;1.50;;
6374;SDS011;35400;45.472;-122.822;2024-01-25T02:37:58;10.57;;;2.30;;
6374;SDS011;35400;45.472;-122.822;2024-01-25T02:40:25;5.30;;;2.00;;
6374;SDS011;35400;45.472;-122.822;2024-01-25T02:42:52;8.33;;;2.00;;
6374;SDS011;35400;45.472;-122.822;2024-01-25T02:45:19;6.43;;;2.13;;
6374;SDS011;35400;45.472;-122.822;2024-01-25T02:47:45;6.60;;;2.00;;
6374;SDS011;35400;45.472;-122.822;2024-01-25T02:50:12;7.80;;;2.30;;
6374;SDS011;35400;45.472;-122.822;2024-01-25T02:52:40;5.87;;;2.10;;
6374;SDS011;35400;45.472;-122.822;2024-01-25T02:55:07;8.63;;;1.90;;
6374;SDS011;35400;45.472;-122.822;2024-01-25T02:57:34;8.17;;;2.70;;
6374;SDS011;35400;45.472;-122.822;2024-01-25T03:00:01;7.07;;;3.57;;
6374;SDS011;35400;45.472;-122.822;2024-01-25T03:02:28;6.20;;;3.40;;
6374;SDS011;35400;45.472;-122.822;2024-01-25T03:04:55;13.63;;;5.07;;
6374;SDS011;35400;45.472;-122.822;2024-01-25T03:07:22;14.13;;;4.43;;
6374;SDS011;35400;45.472;-122.822;2024-01-25T03:09:49;12.63;;;3.93;;
6374;SDS011;35400;45.472;-122.822;2024-01-25T03:12:16;9.63;;;4.03;;
6374;SDS011;35400;45.472;-122.822;2024-01-25T03:14:42;7.20;;;3.80;;
6374;SDS011;35400;45.472;-122.822;2024-01-25T03:17:09;9.97;;;3.10;;
6374;SDS011;35400;45.472;-122.822;2024-01-25T03:19:38;7.60;;;2.93;;
6374;SDS011;35400;45.472;-122.822;2024-01-25T03:22:05;5.57;;;2.50;;
6374;SDS011;35400;45.472;-122.822;2024-01-25T03:24:31;3.43;;;1.80;;
6374;SDS011;35400;45.472;-122.822;2024-01-25T03:26:58;6.10;;;2.33;;
6374;SDS011;35400;45.472;-122.822;2024-01-25T03:29:25;3.90;;;2.03;;
6374;SDS011;35400;45.472;-122.822;2024-01-25T03:31:52;9.33;;;2.90;;
6374;SDS011;35400;45.472;-122.822;2024-01-25T03:34:19;9.80;;;3.10;;
6374;SDS011;35400;45.472;-122.822;2024-01-25T03:36:46;9.13;;;3.87;;
6374;SDS011;35400;45.472;-122.822;2024-01-25T03:39:12;13.30;;;2.93;;
6374;SDS011;35400;45.472;-122.822;2024-01-25T03:41:39;6.83;;;2.17;;
6374;SDS011;35400;45.472;-122.822;2024-01-25T03:44:06;6.97;;;2.80;;
6374;SDS011;35400;45.472;-122.822;2024-01-25T03:46:33;8.00;;;2.43;;
6374;SDS011;35400;45.472;-122.822;2024-01-25T03:49:00;7.07;;;2.80;;
6374;SDS011;35400;45.472;-122.822;2024-01-25T03:51:27;9.87;;;3.00;;
6374;SDS011;35400;45.472;-122.822;2024-01-25T03:53:53;6.13;;;2.50;;
6374;SDS011;35400;45.472;-122.822;2024-01-25T03:56:23;7.97;;;2.27;;
6374;SDS011;35400;45.472;-122.822;2024-01-25T03:58:52;8.40;;;2.53;;
6374;SDS011;35400;45.472;-122.822;2024-01-25T04:01:19;9.17;;;2.53;;
6374;SDS011;35400;45.472;-122.822;2024-01-25T04:03:46;9.37;;;2.80;;
6374;SDS011;35400;45.472;-122.822;2024-01-25T04:06:13;8.10;;;2.47;;
6374;SDS011;35400;45.472;-122.822;2024-01-25T04:08:39;5.67;;;2.37;;
6374;SDS011;35400;45.472;-122.822;2024-01-25T04:11:06;5.27;;;1.80;;
6374;SDS011;35400;45.472;-122.822;2024-01-25T04:13:35;8.13;;;1.90;;
6374;SDS011;35400;45.472;-122.822;2024-01-25T04:16:02;6.90;;;2.10;;
6374;SDS011;35400;45.472;-122.822;2024-01-25T04:18:29;3.90;;;2.10;;
6374;SDS011;35400;45.472;-122.822;2024-01-25T04:20:56;6.10;;;2.23;;
6374;SDS011;35400;45.472;-122.822;2024-01-25T04:23:22;5.30;;;1.97;;
6374;SDS011;35400;45.472;-122.822;2024-01-25T04:25:49;8.73;;;2.50;;
6374;SDS011;35400;45.472;-122.822;2024-01-25T04:28:17;10.83;;;2.43;;
6374;SDS011;35400;45.472;-122.822;2024-01-25T04:30:43;7.53;;;2.10;;
6374;SDS011;35400;45.472;-122.822;2024-01-25T04:33:10;18.27;;;2.67;;
6374;SDS011;35400;45.472;-122.822;2024-01-25T04:35:37;4.80;;;1.70;;
6374;SDS011;35400;45.472;-122.822;2024-01-25T04:38:04;8.97;;;1.90;;
6374;SDS011;35400;45.472;-122.822;2024-01-25T04:40:31;4.43;;;1.00;;
6374;SDS011;35400;45.472;-122.822;2024-01-25T04:42:57;1.53;;;0.87;;
6374;SDS011;35400;45.472;-122.822;2024-01-25T04:45:24;4.00;;;1.10;;
6374;SDS011;35400;45.472;-122.822;2024-01-25T04:47:51;4.67;;;0.80;;
6374;SDS011;35400;45.472;-122.822;2024-01-25T04:50:18;1.87;;;0.70;;
6374;SDS011;35400;45.472;-122.822;2024-01-25T04:52:45;1.23;;;0.60;;
6374;SDS011;35400;45.472;-122.822;2024-01-25T04:55:11;6.53;;;1.00;;
6374;SDS011;35400;45.472;-122.822;2024-01-25T04:57:38;4.07;;;1.10;;
6374;SDS011;35400;45.472;-122.822;2024-01-25T05:00:05;3.40;;;0.97;;
6374;SDS011;35400;45.472;-122.822;2024-01-25T05:02:33;2.13;;;0.80;;
6374;SDS011;35400;45.472;-122.822;2024-01-25T05:04:59;3.77;;;1.00;;
6374;SDS011;35400;45.472;-122.822;2024-01-25T05:07:26;3.03;;;0.77;;
6374;SDS011;35400;45.472;-122.822;2024-01-25T05:09:53;4.00;;;1.07;;
6374;SDS011;35400;45.472;-122.822;2024-01-25T05:12:20;3.90;;;0.77;;
6374;SDS011;35400;45.472;-122.822;2024-01-25T05:14:47;2.30;;;0.80;;
6374;SDS011;35400;45.472;-122.822;2024-01-25T05:17:14;1.40;;;0.80;;
6374;SDS011;35400;45.472;-122.822;2024-01-25T05:19:40;1.53;;;0.77;;
6374;SDS011;35400;45.472;-122.822;2024-01-25T05:22:07;2.23;;;0.60;;
6374;SDS011;35400;45.472;-122.822;2024-01-25T05:24:34;1.37;;;0.70;;
6374;SDS011;35400;45.472;-122.822;2024-01-25T05:27:01;5.37;;;0.73;;
6374;SDS011;35400;45.472;-122.822;2024-01-25T05:29:28;1.60;;;0.67;;
6374;SDS011;35400;45.472;-122.822;2024-01-25T05:31:54;2.17;;;0.40;;
6374;SDS011;35400;45.472;-122.822;2024-01-25T05:34:22;1.77;;;0.50;;
6374;SDS011;35400;45.472;-122.822;2024-01-25T05:36:48;1.27;;;0.60;;
6374;SDS011;35400;45.472;-122.822;2024-01-25T05:39:15;1.17;;;0.50;;
6374;SDS011;35400;45.472;-122.822;2024-01-25T05:41:46;2.03;;;0.70;;
6374;SDS011;35400;45.472;-122.822;2024-01-25T05:44:13;3.47;;;0.87;;
6374;SDS011;35400;45.472;-122.822;2024-01-25T05:46:40;1.00;;;0.87;;
6374;SDS011;35400;45.472;-122.822;2024-01-25T05:49:06;0.93;;;0.70;;
6374;SDS011;35400;45.472;-122.822;2024-01-25T05:51:33;2.33;;;0.70;;
6374;SDS011;35400;45.472;-122.822;2024-01-25T05:54:01;1.37;;;0.80;;
6374;SDS011;35400;45.472;-122.822;2024-01-25T05:56:29;1.33;;;0.77;;
6374;SDS011;35400;45.472;-122.822;2024-01-25T05:58:56;1.80;;;0.80;;
6374;SDS011;35400;45.472;-122.822;2024-01-25T06:01:23;2.83;;;1.00;;
6374;SDS011;35400;45.472;-122.822;2024-01-25T06:03:50;1.43;;;0.80;;
6374;SDS011;35400;45.472;-122.822;2024-01-25T06:06:17;3.40;;;1.00;;
6374;SDS011;35400;45.472;-122.822;2024-01-25T06:08:44;1.17;;;0.80;;
6374;SDS011;35400;45.472;-122.822;2024-01-25T06:11:11;1.00;;;0.50;;
6374;SDS011;35400;45.472;-122.822;2024-01-25T06:13:37;1.07;;;0.50;;
6374;SDS011;35400;45.472;-122.822;2024-01-25T06:16:04;1.37;;;0.60;;
6374;SDS011;35400;45.472;-122.822;2024-01-25T06:18:31;1.87;;;0.50;;
6374;SDS011;35400;45.472;-122.822;2024-01-25T06:20:58;0.50;;;0.50;;
6374;SDS011;35400;45.472;-122.822;2024-01-25T06:23:25;1.70;;;0.43;;
6374;SDS011;35400;45.472;-122.822;2024-01-25T06:25:52;0.80;;;0.60;;
6374;SDS011;35400;45.472;-122.822;2024-01-25T06:28:18;1.30;;;0.83;;
6374;SDS011;35400;45.472;-122.822;2024-01-25T06:30:45;1.03;;;0.70;;
6374;SDS011;35400;45.472;-122.822;2024-01-25T06:33:12;2.13;;;1.17;;
6374;SDS011;35400;45.472;-122.822;2024-01-25T06:35:39;4.40;;;3.23;;
6374;SDS011;35400;45.472;-122.822;2024-01-25T06:38:06;15.63;;;11.63;;
6374;SDS011;35400;45.472;-122.822;2024-01-25T06:40:33;22.80;;;15.40;;
6374;SDS011;35400;45.472;-122.822;2024-01-25T06:42:59;15.60;;;11.60;;
6374;SDS011;35400;45.472;-122.822;2024-01-25T06:45:26;14.97;;;10.07;;
6374;SDS011;35400;45.472;-122.822;2024-01-25T06:47:53;7.90;;;5.23;;
6374;SDS011;35400;45.472;-122.822;2024-01-25T06:50:20;4.47;;;2.87;;
6374;SDS011;35400;45.472;-122.822;2024-01-25T06:52:47;2.97;;;2.10;;
6374;SDS011;35400;45.472;-122.822;2024-01-25T06:55:14;2.23;;;1.43;;
6374;SDS011;35400;45.472;-122.822;2024-01-25T06:57:40;4.43;;;2.00;;
6374;SDS011;35400;45.472;-122.822;2024-01-25T07:00:07;1.50;;;0.90;;
6374;SDS011;35400;45.472;-122.822;2024-01-25T07:02:36;1.13;;;0.60;;
6374;SDS011;35400;45.472;-122.822;2024-01-25T07:05:03;2.47;;;0.80;;
6374;SDS011;35400;45.472;-122.822;2024-01-25T07:07:30;2.53;;;0.57;;
6374;SDS011;35400;45.472;-122.822;2024-01-25T07:09:58;1.13;;;0.80;;
6374;SDS011;35400;45.472;-122.822;2024-01-25T07:12:25;2.57;;;0.80;;
6374;SDS011;35400;45.472;-122.822;2024-01-25T07:14:52;2.77;;;0.90;;
6374;SDS011;35400;45.472;-122.822;2024-01-25T07:17:20;0.87;;;0.70;;
6374;SDS011;35400;45.472;-122.822;2024-01-25T07:19:46;2.00;;;0.97;;
6374;SDS011;35400;45.472;-122.822;2024-01-25T07:22:13;3.23;;;0.70;;
6374;SDS011;35400;45.472;-122.822;2024-01-25T07:24:41;2.43;;;1.10;;
6374;SDS011;35400;45.472;-122.822;2024-01-25T07:27:07;3.13;;;1.10;;
6374;SDS011;35400;45.472;-122.822;2024-01-25T07:29:36;2.10;;;0.73;;
6374;SDS011;35400;45.472;-122.822;2024-01-25T07:32:03;3.60;;;0.90;;
6374;SDS011;35400;45.472;-122.822;2024-01-25T07:34:30;2.17;;;0.80;;
6374;SDS011;35400;45.472;-122.822;2024-01-25T07:36:57;2.30;;;1.03;;
6374;SDS011;35400;45.472;-122.822;2024-01-25T07:39:24;2.67;;;1.30;;
6374;SDS011;35400;45.472;-122.822;2024-01-25T07:41:51;1.67;;;0.77;;
6374;SDS011;35400;45.472;-122.822;2024-01-25T07:44:18;2.00;;;0.90;;
6374;SDS011;35400;45.472;-122.822;2024-01-25T07:46:45;3.77;;;0.83;;
6374;SDS011;35400;45.472;-122.822;2024-01-25T07:49:12;4.10;;;1.10;;
6374;SDS011;35400;45.472;-122.822;2024-01-25T07:51:39;3.67;;;0.93;;
6374;SDS011;35400;45.472;-122.822;2024-01-25T07:54:06;3.37;;;0.70;;
6374;SDS011;35400;45.472;-122.822;2024-01-25T07:56:33;3.30;;;0.93;;
6374;SDS011;35400;45.472;-122.822;2024-01-25T07:59:00;3.73;;;1.20;;
6374;SDS011;35400;45.472;-122.822;2024-01-25T08:01:27;2.43;;;0.97;;
6374;SDS011;35400;45.472;-122.822;2024-01-25T08:03:53;3.00;;;1.10;;
6374;SDS011;35400;45.472;-122.822;2024-01-25T08:06:21;1.63;;;1.10;;
6374;SDS011;35400;45.472;-122.822;2024-01-25T08:08:48;4.47;;;1.17;;
6374;SDS011;35400;45.472;-122.822;2024-01-25T08:11:15;2.60;;;0.80;;
6374;SDS011;35400;45.472;-122.822;2024-01-25T08:13:44;5.73;;;1.30;;
6374;SDS011;35400;45.472;-122.822;2024-01-25T08:16:13;6.57;;;1.20;;
6374;SDS011;35400;45.472;-122.822;2024-01-25T08:18:45;3.37;;;1.30;;
6374;SDS011;35400;45.472;-122.822;2024-01-25T08:21:13;6.67;;;1.57;;
6374;SDS011;35400;45.472;-122.822;2024-01-25T08:23:40;9.90;;;2.00;;
6374;SDS011;35400;45.472;-122.822;2024-01-25T08:26:07;9.13;;;1.97;;
6374;SDS011;35400;45.472;-122.822;2024-01-25T08:28:39;3.87;;;1.33;;
6374;SDS011;35400;45.472;-122.822;2024-01-25T08:31:06;4.37;;;1.30;;
6374;SDS011;35400;45.472;-122.822;2024-01-25T08:33:33;5.33;;;1.43;;
6374;SDS011;35400;45.472;-122.822;2024-01-25T08:36:00;7.27;;;1.50;;
6374;SDS011;35400;45.472;-122.822;2024-01-25T08:38:27;6.67;;;2.07;;
6374;SDS011;35400;45.472;-122.822;2024-01-25T08:40:54;4.77;;;1.30;;
6374;SDS011;35400;45.472;-122.822;2024-01-25T08:43:21;6.73;;;1.60;;
6374;SDS011;35400;45.472;-122.822;2024-01-25T08:45:47;6.90;;;1.57;;
6374;SDS011;35400;45.472;-122.822;2024-01-25T08:48:14;7.93;;;1.60;;
6374;SDS011;35400;45.472;-122.822;2024-01-25T08:50:41;7.43;;;1.87;;
6374;SDS011;35400;45.472;-122.822;2024-01-25T08:53:08;5.33;;;1.40;;
6374;SDS011;35400;45.472;-122.822;2024-01-25T08:55:35;7.20;;;1.40;;
6374;SDS011;35400;45.472;-122.822;2024-01-25T08:58:02;4.93;;;2.00;;
6374;SDS011;35400;45.472;-122.822;2024-01-25T09:00:29;7.50;;;1.50;;
6374;SDS011;35400;45.472;-122.822;2024-01-25T09:02:56;8.43;;;2.33;;
6374;SDS011;35400;45.472;-122.822;2024-01-25T09:05:23;7.97;;;2.00;;
6374;SDS011;35400;45.472;-122.822;2024-01-25T09:07:54;8.77;;;1.73;;
6374;SDS011;35400;45.472;-122.822;2024-01-25T09:10:20;7.83;;;1.83;;
6374;SDS011;35400;45.472;-122.822;2024-01-25T09:12:47;5.60;;;1.23;;
6374;SDS011;35400;45.472;-122.822;2024-01-25T09:15:14;6.17;;;1.57;;
6374;SDS011;35400;45.472;-122.822;2024-01-25T09:17:41;5.80;;;1.40;;
6374;SDS011;35400;45.472;-122.822;2024-01-25T09:20:09;12.30;;;1.80;;
6374;SDS011;35400;45.472;-122.822;2024-01-25T09:22:36;9.20;;;2.00;;
6374;SDS011;35400;45.472;-122.822;2024-01-25T09:25:03;5.47;;;1.63;;
6374;SDS011;35400;45.472;-122.822;2024-01-25T09:27:31;9.37;;;2.13;;
6374;SDS011;35400;45.472;-122.822;2024-01-25T09:29:57;13.13;;;2.50;;
6374;SDS011;35400;45.472;-122.822;2024-01-25T09:32:24;5.23;;;1.53;;
6374;SDS011;35400;45.472;-122.822;2024-01-25T09:34:51;4.00;;;1.20;;
6374;SDS011;35400;45.472;-122.822;2024-01-25T09:37:19;7.27;;;1.53;;
6374;SDS011;35400;45.472;-122.822;2024-01-25T09:39:47;8.60;;;1.73;;
6374;SDS011;35400;45.472;-122.822;2024-01-25T09:42:14;8.47;;;2.30;;
6374;SDS011;35400;45.472;-122.822;2024-01-25T09:44:42;9.37;;;1.50;;
6374;SDS011;35400;45.472;-122.822;2024-01-25T09:47:10;6.27;;;1.97;;
6374;SDS011;35400;45.472;-122.822;2024-01-25T09:49:37;5.57;;;1.43;;
6374;SDS011;35400;45.472;-122.822;2024-01-25T09:52:04;3.37;;;1.57;;
6374;SDS011;35400;45.472;-122.822;2024-01-25T09:54:32;7.87;;;1.37;;
6374;SDS011;35400;45.472;-122.822;2024-01-25T09:57:05;3.40;;;1.50;;
6374;SDS011;35400;45.472;-122.822;2024-01-25T09:59:40;7.37;;;1.50;;
6374;SDS011;35400;45.472;-122.822;2024-01-25T10:02:07;5.83;;;1.27;;
6374;SDS011;35400;45.472;-122.822;2024-01-25T10:04:35;3.03;;;1.10;;
6374;SDS011;35400;45.472;-122.822;2024-01-25T10:07:02;3.97;;;0.93;;
6374;SDS011;35400;45.472;-122.822;2024-01-25T10:09:38;5.07;;;1.40;;
6374;SDS011;35400;45.472;-122.822;2024-01-25T10:12:07;3.07;;;0.87;;
6374;SDS011;35400;45.472;-122.822;2024-01-25T10:14:34;7.93;;;1.23;;
6374;SDS011;35400;45.472;-122.822;2024-01-25T10:17:00;7.53;;;1.83;;
6374;SDS011;35400;45.472;-122.822;2024-01-25T10:19:28;4.40;;;1.93;;
6374;SDS011;35400;45.472;-122.822;2024-01-25T10:21:55;4.60;;;1.60;;
6374;SDS011;35400;45.472;-122.822;2024-01-25T10:24:23;4.57;;;1.17;;
6374;SDS011;35400;45.472;-122.822;2024-01-25T10:26:50;7.90;;;1.70;;
6374;SDS011;35400;45.472;-122.822;2024-01-25T10:29:16;3.80;;;1.20;;
6374;SDS011;35400;45.472;-122.822;2024-01-25T10:31:43;6.30;;;2.07;;
6374;SDS011;35400;45.472;-122.822;2024-01-25T10:34:12;7.60;;;2.33;;
6374;SDS011;35400;45.472;-122.822;2024-01-25T10:36:43;5.90;;;1.80;;
6374;SDS011;35400;45.472;-122.822;2024-01-25T10:39:10;9.50;;;1.80;;
6374;SDS011;35400;45.472;-122.822;2024-01-25T10:41:40;5.53;;;1.40;;
6374;SDS011;35400;45.472;-122.822;2024-01-25T10:44:07;10.87;;;2.30;;
6374;SDS011;35400;45.472;-122.822;2024-01-25T10:46:34;10.03;;;2.17;;
6374;SDS011;35400;45.472;-122.822;2024-01-25T10:49:04;6.07;;;2.23;;
6374;SDS011;35400;45.472;-122.822;2024-01-25T10:51:32;8.10;;;2.40;;
6374;SDS011;35400;45.472;-122.822;2024-01-25T10:53:59;4.13;;;2.07;;
6374;SDS011;35400;45.472;-122.822;2024-01-25T10:56:27;5.83;;;1.77;;
6374;SDS011;35400;45.472;-122.822;2024-01-25T10:58:54;7.90;;;2.30;;
6374;SDS011;35400;45.472;-122.822;2024-01-25T11:01:21;4.57;;;1.20;;
6374;SDS011;35400;45.472;-122.822;2024-01-25T11:03:49;4.17;;;1.23;;
6374;SDS011;35400;45.472;-122.822;2024-01-25T11:06:16;7.53;;;1.53;;
6374;SDS011;35400;45.472;-122.822;2024-01-25T11:08:46;5.90;;;1.20;;
6374;SDS011;35400;45.472;-122.822;2024-01-25T11:11:13;6.87;;;1.40;;
6374;SDS011;35400;45.472;-122.822;2024-01-25T11:13:41;4.47;;;1.10;;
6374;SDS011;35400;45.472;-122.822;2024-01-25T11:16:12;8.03;;;1.90;;
6374;SDS011;35400;45.472;-122.822;2024-01-25T11:18:50;5.90;;;1.80;;
6374;SDS011;35400;45.472;-122.822;2024-01-25T11:21:22;4.77;;;1.80;;
6374;SDS011;35400;45.472;-122.822;2024-01-25T11:24:02;4.17;;;1.67;;
6374;SDS011;35400;45.472;-122.822;2024-01-25T11:26:29;4.87;;;1.77;;
6374;SDS011;35400;45.472;-122.822;2024-01-25T11:28:58;5.90;;;1.33;;
6374;SDS011;35400;45.472;-122.822;2024-01-25T11:31:28;5.10;;;1.20;;
6374;SDS011;35400;45.472;-122.822;2024-01-25T11:33:58;3.37;;;1.30;;
6374;SDS011;35400;45.472;-122.822;2024-01-25T11:36:26;3.57;;;1.70;;
6374;SDS011;35400;45.472;-122.822;2024-01-25T11:38:54;4.97;;;1.90;;
6374;SDS011;35400;45.472;-122.822;2024-01-25T11:41:21;3.33;;;1.10;;
6374;SDS011;35400;45.472;-122.822;2024-01-25T11:43:48;5.20;;;1.37;;
6374;SDS011;35400;45.472;-122.822;2024-01-25T11:46:15;2.87;;;1.07;;
6374;SDS011;35400;45.472;-122.822;2024-01-25T11:48:42;7.37;;;2.23;;
6374;SDS011;35400;45.472;-122.822;2024-01-25T11:51:09;7.27;;;3.03;;
6374;SDS011;35400;45.472;-122.822;2024-01-25T11:53:39;8.40;;;3.23;;
6374;SDS011;35400;45.472;-122.822;2024-01-25T11:56:07;5.37;;;2.07;;
6374;SDS011;35400;45.472;-122.822;2024-01-25T11:58:37;4.47;;;1.63;;
6374;SDS011;35400;45.472;-122.822;2024-01-25T12:01:05;5.70;;;1.50;;
6374;SDS011;35400;45.472;-122.822;2024-01-25T12:03:36;3.27;;;1.00;;
6374;SDS011;35400;45.472;-122.822;2024-01-25T12:06:04;4.77;;;1.20;;
6374;SDS011;35400;45.472;-122.822;2024-01-25T12:08:34;6.20;;;2.27;;
6374;SDS011;35400;45.472;-122.822;2024-01-25T12:11:02;7.93;;;1.80;;
6374;SDS011;35400;45.472;-122.822;2024-01-25T12:13:34;8.13;;;1.53;;
6374;SDS011;35400;45.472;-122.822;2024-01-25T12:16:05;5.53;;;1.63;;
6374;SDS011;35400;45.472;-122.822;2024-01-25T12:18:33;4.87;;;1.50;;
6374;SDS011;35400;45.472;-122.822;2024-01-25T12:21:04;4.90;;;1.23;;
6374;SDS011;35400;45.472;-122.822;2024-01-25T12:23:35;5.10;;;1.40;;
6374;SDS011;35400;45.472;-122.822;2024-01-25T12:26:04;6.00;;;1.50;;
6374;SDS011;35400;45.472;-122.822;2024-01-25T12:28:35;5.37;;;1.40;;
6374;SDS011;35400;45.472;-122.822;2024-01-25T12:31:03;4.13;;;1.10;;
6374;SDS011;35400;45.472;-122.822;2024-01-25T12:33:31;6.63;;;1.93;;
6374;SDS011;35400;45.472;-122.822;2024-01-25T12:35:58;8.47;;;1.30;;
6374;SDS011;35400;45.472;-122.822;2024-01-25T12:38:25;6.57;;;1.83;;
6374;SDS011;35400;45.472;-122.822;2024-01-25T12:40:54;4.80;;;1.60;;
6374;SDS011;35400;45.472;-122.822;2024-01-25T12:43:21;7.73;;;1.30;;
6374;SDS011;35400;45.472;-122.822;2024-01-25T12:45:48;3.97;;;1.77;;
6374;SDS011;35400;45.472;-122.822;2024-01-25T12:48:15;7.10;;;1.47;;
6374;SDS011;35400;45.472;-122.822;2024-01-25T12:50:43;4.50;;;1.47;;
6374;SDS011;35400;45.472;-122.822;2024-01-25T12:53:10;7.80;;;1.70;;
6374;SDS011;35400;45.472;-122.822;2024-01-25T12:55:38;4.43;;;1.73;;
6374;SDS011;35400;45.472;-122.822;2024-01-25T12:58:04;8.13;;;1.73;;
6374;SDS011;35400;45.472;-122.822;2024-01-25T13:00:31;9.97;;;2.17;;
6374;SDS011;35400;45.472;-122.822;2024-01-25T13:02:59;3.20;;;1.50;;
6374;SDS011;35400;45.472;-122.822;2024-01-25T13:05:29;4.00;;;1.40;;
6374;SDS011;35400;45.472;-122.822;2024-01-25T13:08:00;6.43;;;1.73;;
6374;SDS011;35400;45.472;-122.822;2024-01-25T13:10:28;6.93;;;1.63;;
6374;SDS011;35400;45.472;-122.822;2024-01-25T13:12:55;5.50;;;1.40;;
6374;SDS011;35400;45.472;-122.822;2024-01-25T13:15:22;8.83;;;1.70;;
6374;SDS011;35400;45.472;-122.822;2024-01-25T13:17:49;6.10;;;1.20;;
6374;SDS011;35400;45.472;-122.822;2024-01-25T13:20:16;3.77;;;1.37;;
6374;SDS011;35400;45.472;-122.822;2024-01-25T13:22:43;5.37;;;1.23;;
6374;SDS011;35400;45.472;-122.822;2024-01-25T13:25:10;5.00;;;1.70;;
6374;SDS011;35400;45.472;-122.822;2024-01-25T13:27:37;7.57;;;1.83;;
6374;SDS011;35400;45.472;-122.822;2024-01-25T13:30:04;6.90;;;1.67;;
6374;SDS011;35400;45.472;-122.822;2024-01-25T13:32:32;10.03;;;1.70;;
6374;SDS011;35400;45.472;-122.822;2024-01-25T13:34:58;4.93;;;1.47;;
6374;SDS011;35400;45.472;-122.822;2024-01-25T13:37:25;4.23;;;1.33;;
6374;SDS011;35400;45.472;-122.822;2024-01-25T13:39:52;8.47;;;1.33;;
6374;SDS011;35400;45.472;-122.822;2024-01-25T13:42:19;5.43;;;1.50;;
6374;SDS011;35400;45.472;-122.822;2024-01-25T13:44:46;6.63;;;1.30;;
6374;SDS011;35400;45.472;-122.822;2024-01-25T13:47:13;5.27;;;1.30;;
6374;SDS011;35400;45.472;-122.822;2024-01-25T13:49:40;7.33;;;1.77;;
6374;SDS011;35400;45.472;-122.822;2024-01-25T13:52:07;5.00;;;1.47;;
6374;SDS011;35400;45.472;-122.822;2024-01-25T13:54:46;5.27;;;1.60;;
6374;SDS011;35400;45.472;-122.822;2024-01-25T13:57:16;8.37;;;1.90;;
6374;SDS011;35400;45.472;-122.822;2024-01-25T13:59:46;5.80;;;1.23;;
6374;SDS011;35400;45.472;-122.822;2024-01-25T14:02:13;7.97;;;1.60;;
6374;SDS011;35400;45.472;-122.822;2024-01-25T14:04:39;7.17;;;1.57;;
6374;SDS011;35400;45.472;-122.822;2024-01-25T14:07:06;7.90;;;1.30;;
6374;SDS011;35400;45.472;-122.822;2024-01-25T14:09:33;5.63;;;1.77;;
6374;SDS011;35400;45.472;-122.822;2024-01-25T14:12:00;6.43;;;1.43;;
6374;SDS011;35400;45.472;-122.822;2024-01-25T14:14:27;3.23;;;1.40;;
6374;SDS011;35400;45.472;-122.822;2024-01-25T14:16:53;7.47;;;1.37;;
6374;SDS011;35400;45.472;-122.822;2024-01-25T14:19:20;5.57;;;1.37;;
6374;SDS011;35400;45.472;-122.822;2024-01-25T14:21:47;5.33;;;1.33;;